sensor_id;sensor_type;location;lat;lon;timestamp;pressure;altitude;pressure_sealevel;temperature;humidity
35248;BME280;21380;52.194;20.520;2023-05-19T00:01:08;101637.06;;;19.51;55.66
35248;BME280;21380;52.194;20.520;2023-05-19T00:03:35;101642.38;;;19.55;55.55
35248;BME280;21380;52.194;20.520;2023-05-19T00:06:06;101653.19;;;19.69;55.71
35248;BME280;21380;52.194;20.520;2023-05-19T00:08:37;101656.69;;;19.70;55.69
35248;BME280;21380;52.194;20.520;2023-05-19T00:11:03;101649.63;;;19.66;55.79
35248;BME280;21380;52.194;20.520;2023-05-19T00:13:29;101650.50;;;19.66;55.84
35248;BME280;21380;52.194;20.520;2023-05-19T00:15:56;101657.53;;;19.69;55.92
35248;BME280;21380;52.194;20.520;2023-05-19T00:18:22;101646.94;;;19.64;55.83
35248;BME280;21380;52.194;20.520;2023-05-19T00:20:48;101656.66;;;19.68;55.87
35248;BME280;21380;52.194;20.520;2023-05-19T00:23:14;101648.72;;;19.65;55.78
35248;BME280;21380;52.194;20.520;2023-05-19T00:25:40;101651.41;;;19.68;55.86
35248;BME280;21380;52.194;20.520;2023-05-19T00:28:06;101632.88;;;19.59;55.94
35248;BME280;21380;52.194;20.520;2023-05-19T00:30:32;101633.81;;;19.61;56.07
35248;BME280;21380;52.194;20.520;2023-05-19T00:32:58;101648.75;;;19.67;55.97
35248;BME280;21380;52.194;20.520;2023-05-19T00:35:24;101647.91;;;19.68;56.21
35248;BME280;21380;52.194;20.520;2023-05-19T00:37:49;101631.97;;;19.57;56.14
35248;BME280;21380;52.194;20.520;2023-05-19T00:40:16;101653.97;;;19.67;56.22
35248;BME280;21380;52.194;20.520;2023-05-19T00:42:42;101651.34;;;19.67;56.11
35248;BME280;21380;52.194;20.520;2023-05-19T00:45:08;101634.63;;;19.58;56.12
35248;BME280;21380;52.194;20.520;2023-05-19T00:47:34;101652.22;;;19.66;56.18
35248;BME280;21380;52.194;20.520;2023-05-19T00:50:00;101654.84;;;19.66;56.20
35248;BME280;21380;52.194;20.520;2023-05-19T00:52:26;101631.84;;;19.52;56.29
35248;BME280;21380;52.194;20.520;2023-05-19T00:54:54;101639.84;;;19.58;56.21
35248;BME280;21380;52.194;20.520;2023-05-19T00:57:20;101644.28;;;19.61;56.23
35248;BME280;21380;52.194;20.520;2023-05-19T00:59:49;101625.75;;;19.52;56.43
35248;BME280;21380;52.194;20.520;2023-05-19T01:02:15;101629.28;;;19.54;56.55
35248;BME280;21380;52.194;20.520;2023-05-19T01:04:42;101646.06;;;19.64;56.34
35248;BME280;21380;52.194;20.520;2023-05-19T01:07:10;101641.69;;;19.63;56.30
35248;BME280;21380;52.194;20.520;2023-05-19T01:09:37;101638.94;;;19.58;56.35
35248;BME280;21380;52.194;20.520;2023-05-19T01:12:05;101630.16;;;19.54;56.33
35248;BME280;21380;52.194;20.520;2023-05-19T01:14:31;101639.88;;;19.60;56.73
35248;BME280;21380;52.194;20.520;2023-05-19T01:17:00;101649.56;;;19.64;56.43
35248;BME280;21380;52.194;20.520;2023-05-19T01:22:39;101635.56;;;19.62;56.58
35248;BME280;21380;52.194;20.520;2023-05-19T01:30:39;101639.91;;;19.61;56.53
35248;BME280;21380;52.194;20.520;2023-05-19T01:33:07;101646.03;;;19.60;56.63
35248;BME280;21380;52.194;20.520;2023-05-19T01:35:36;101643.41;;;19.60;56.58
35248;BME280;21380;52.194;20.520;2023-05-19T01:38:03;101620.47;;;19.50;56.80
35248;BME280;21380;52.194;20.520;2023-05-19T01:40:32;101625.88;;;19.58;56.76
35248;BME280;21380;52.194;20.520;2023-05-19T01:42:59;101637.25;;;19.60;56.66
35248;BME280;21380;52.194;20.520;2023-05-19T01:45:31;101609.84;;;19.44;56.83
35248;BME280;21380;52.194;20.520;2023-05-19T01:48:00;101628.53;;;19.59;56.88
35248;BME280;21380;52.194;20.520;2023-05-19T01:50:27;101627.59;;;19.57;56.75
35248;BME280;21380;52.194;20.520;2023-05-19T01:52:54;101623.19;;;19.55;56.75
35248;BME280;21380;52.194;20.520;2023-05-19T01:55:21;101602.94;;;19.46;56.92
35248;BME280;21380;52.194;20.520;2023-05-19T01:58:09;101620.63;;;19.58;56.88
35248;BME280;21380;52.194;20.520;2023-05-19T02:03:52;101625.00;;;19.57;56.75
35248;BME280;21380;52.194;20.520;2023-05-19T02:06:29;101625.84;;;19.56;56.81
35248;BME280;21380;52.194;20.520;2023-05-19T02:09:19;101632.84;;;19.57;56.94
35248;BME280;21380;52.194;20.520;2023-05-19T02:11:56;101631.06;;;19.56;56.78
35248;BME280;21380;52.194;20.520;2023-05-19T02:14:44;101631.06;;;19.56;56.82
35248;BME280;21380;52.194;20.520;2023-05-19T02:17:13;101601.00;;;19.39;56.85
35248;BME280;21380;52.194;20.520;2023-05-19T02:19:43;101613.41;;;19.46;57.05
35248;BME280;21380;52.194;20.520;2023-05-19T02:22:10;101603.66;;;19.40;56.88
35248;BME280;21380;52.194;20.520;2023-05-19T02:24:35;101629.28;;;19.55;57.15
35248;BME280;21380;52.194;20.520;2023-05-19T02:27:02;101601.03;;;19.40;56.88
35248;BME280;21380;52.194;20.520;2023-05-19T02:29:28;101621.38;;;19.51;57.04
35248;BME280;21380;52.194;20.520;2023-05-19T02:31:54;101606.41;;;19.45;57.00
35248;BME280;21380;52.194;20.520;2023-05-19T02:34:20;101606.47;;;19.48;57.17
35248;BME280;21380;52.194;20.520;2023-05-19T02:36:47;101589.59;;;19.35;57.13
35248;BME280;21380;52.194;20.520;2023-05-19T02:39:16;101606.38;;;19.43;57.19
35248;BME280;21380;52.194;20.520;2023-05-19T02:41:42;101611.72;;;19.48;57.33
35248;BME280;21380;52.194;20.520;2023-05-19T02:44:08;101599.31;;;19.39;57.45
35248;BME280;21380;52.194;20.520;2023-05-19T02:46:34;101622.22;;;19.51;57.32
35248;BME280;21380;52.194;20.520;2023-05-19T02:49:00;101614.25;;;19.45;57.18
35248;BME280;21380;52.194;20.520;2023-05-19T02:51:27;101623.91;;;19.49;57.28
35248;BME280;21380;52.194;20.520;2023-05-19T02:53:52;101583.47;;;19.33;56.97
35248;BME280;21380;52.194;20.520;2023-05-19T02:56:19;101601.00;;;19.39;57.17
35248;BME280;21380;52.194;20.520;2023-05-19T02:58:45;101622.25;;;19.53;57.28
35248;BME280;21380;52.194;20.520;2023-05-19T03:01:12;101615.06;;;19.42;57.35
35248;BME280;21380;52.194;20.520;2023-05-19T03:03:38;101626.63;;;19.52;57.47
35248;BME280;21380;52.194;20.520;2023-05-19T03:06:04;101628.38;;;19.52;57.43
35248;BME280;21380;52.194;20.520;2023-05-19T03:08:34;101619.47;;;19.45;57.20
35248;BME280;21380;52.194;20.520;2023-05-19T03:11:01;101628.31;;;19.50;57.31
35248;BME280;21380;52.194;20.520;2023-05-19T03:13:27;101624.75;;;19.47;57.42
35248;BME280;21380;52.194;20.520;2023-05-19T03:15:53;101608.84;;;19.37;57.39
35248;BME280;21380;52.194;20.520;2023-05-19T03:18:21;101627.41;;;19.48;57.36
35248;BME280;21380;52.194;20.520;2023-05-19T03:20:49;101618.50;;;19.41;57.34
35248;BME280;21380;52.194;20.520;2023-05-19T03:23:15;101625.63;;;19.46;57.52
35248;BME280;21380;52.194;20.520;2023-05-19T03:25:41;101635.28;;;19.50;57.44
35248;BME280;21380;52.194;20.520;2023-05-19T03:28:06;101627.41;;;19.48;57.39
35248;BME280;21380;52.194;20.520;2023-05-19T03:30:32;101596.41;;;19.27;57.59
35248;BME280;21380;52.194;20.520;2023-05-19T03:32:58;101635.28;;;19.50;57.62
35248;BME280;21380;52.194;20.520;2023-05-19T03:35:26;101620.28;;;19.42;57.62
35248;BME280;21380;52.194;20.520;2023-05-19T03:37:52;101621.13;;;19.41;57.71
35248;BME280;21380;52.194;20.520;2023-05-19T03:40:18;101608.81;;;19.36;57.64
35248;BME280;21380;52.194;20.520;2023-05-19T03:42:43;101613.22;;;19.38;57.61
35248;BME280;21380;52.194;20.520;2023-05-19T03:45:10;101629.16;;;19.49;57.75
35248;BME280;21380;52.194;20.520;2023-05-19T03:47:35;101598.22;;;19.31;57.83
35248;BME280;21380;52.194;20.520;2023-05-19T03:50:02;101624.78;;;19.48;57.71
35248;BME280;21380;52.194;20.520;2023-05-19T03:52:27;101623.06;;;19.49;57.74
35248;BME280;21380;52.194;20.520;2023-05-19T03:54:54;101622.06;;;19.43;57.95
35248;BME280;21380;52.194;20.520;2023-05-19T03:57:20;101601.81;;;19.35;57.75
35248;BME280;21380;52.194;20.520;2023-05-19T03:59:46;101632.66;;;19.48;57.80
35248;BME280;21380;52.194;20.520;2023-05-19T04:02:12;101626.50;;;19.48;57.84
35248;BME280;21380;52.194;20.520;2023-05-19T04:04:38;101622.94;;;19.44;57.94
35248;BME280;21380;52.194;20.520;2023-05-19T04:07:03;101630.88;;;19.47;57.85
35248;BME280;21380;52.194;20.520;2023-05-19T04:09:29;101609.72;;;19.38;57.89
35248;BME280;21380;52.194;20.520;2023-05-19T04:12:00;101625.63;;;19.47;57.86
35248;BME280;21380;52.194;20.520;2023-05-19T04:14:29;101610.53;;;19.35;57.91
35248;BME280;21380;52.194;20.520;2023-05-19T04:16:55;101606.09;;;19.33;57.89
35248;BME280;21380;52.194;20.520;2023-05-19T04:19:22;101601.72;;;19.32;57.87
35248;BME280;21380;52.194;20.520;2023-05-19T04:21:48;101623.81;;;19.43;57.94
35248;BME280;21380;52.194;20.520;2023-05-19T04:24:14;101606.06;;;19.30;57.81
35248;BME280;21380;52.194;20.520;2023-05-19T04:26:40;101632.56;;;19.45;58.12
35248;BME280;21380;52.194;20.520;2023-05-19T04:29:07;101608.72;;;19.33;57.80
35248;BME280;21380;52.194;20.520;2023-05-19T04:31:35;101619.44;;;19.43;57.99
35248;BME280;21380;52.194;20.520;2023-05-19T04:34:01;101626.38;;;19.41;58.05
35248;BME280;21380;52.194;20.520;2023-05-19T04:36:26;101618.47;;;19.38;58.42
35248;BME280;21380;52.194;20.520;2023-05-19T04:38:52;101633.47;;;19.46;57.94
35248;BME280;21380;52.194;20.520;2023-05-19T04:41:19;101628.16;;;19.44;58.10
35248;BME280;21380;52.194;20.520;2023-05-19T04:43:46;101599.88;;;19.27;57.84
35248;BME280;21380;52.194;20.520;2023-05-19T04:46:12;101625.47;;;19.39;58.22
35248;BME280;21380;52.194;20.520;2023-05-19T04:48:39;101636.09;;;19.46;58.09
35248;BME280;21380;52.194;20.520;2023-05-19T04:51:05;101632.56;;;19.45;58.17
35248;BME280;21380;52.194;20.520;2023-05-19T04:53:32;101625.56;;;19.44;58.23
35248;BME280;21380;52.194;20.520;2023-05-19T04:55:58;101608.72;;;19.33;58.11
35248;BME280;21380;52.194;20.520;2023-05-19T04:58:26;101630.78;;;19.44;58.14
35248;BME280;21380;52.194;20.520;2023-05-19T05:00:52;101614.91;;;19.36;58.17
35248;BME280;21380;52.194;20.520;2023-05-19T05:03:22;101628.16;;;19.44;58.16
35248;BME280;21380;52.194;20.520;2023-05-19T05:05:48;101608.63;;;19.28;57.99
35248;BME280;21380;52.194;20.520;2023-05-19T05:08:15;101619.22;;;19.34;58.13
35248;BME280;21380;52.194;20.520;2023-05-19T05:10:51;101629.91;;;19.43;57.94
35248;BME280;21380;52.194;20.520;2023-05-19T05:13:21;101632.56;;;19.45;58.31
35248;BME280;21380;52.194;20.520;2023-05-19T05:15:48;101620.25;;;19.39;58.38
35248;BME280;21380;52.194;20.520;2023-05-19T05:18:15;101633.47;;;19.46;58.12
35248;BME280;21380;52.194;20.520;2023-05-19T05:20:44;101613.97;;;19.34;58.30
35248;BME280;21380;52.194;20.520;2023-05-19T05:23:11;101633.41;;;19.44;58.12
35248;BME280;21380;52.194;20.520;2023-05-19T05:25:42;101631.69;;;19.44;58.23
35248;BME280;21380;52.194;20.520;2023-05-19T05:28:09;101629.06;;;19.44;58.45
35248;BME280;21380;52.194;20.520;2023-05-19T05:30:35;101618.44;;;19.37;58.39
35248;BME280;21380;52.194;20.520;2023-05-19T05:33:01;101598.16;;;19.28;58.40
35248;BME280;21380;52.194;20.520;2023-05-19T05:35:28;101624.56;;;18.69;60.90
35248;BME280;21380;52.194;20.520;2023-05-19T05:37:54;101621.53;;;17.07;66.98
35248;BME280;21380;52.194;20.520;2023-05-19T05:40:20;101610.78;;;16.46;69.50
35248;BME280;21380;52.194;20.520;2023-05-19T05:42:46;101626.97;;;17.41;65.67
35248;BME280;21380;52.194;20.520;2023-05-19T05:45:12;101619.25;;;17.73;63.59
35248;BME280;21380;52.194;20.520;2023-05-19T05:47:38;101617.38;;;17.97;62.21
35248;BME280;21380;52.194;20.520;2023-05-19T05:50:07;101626.03;;;18.25;61.48
35248;BME280;21380;52.194;20.520;2023-05-19T05:52:35;101599.97;;;18.28;60.81
35248;BME280;21380;52.194;20.520;2023-05-19T05:55:03;101590.56;;;18.35;60.93
35248;BME280;21380;52.194;20.520;2023-05-19T05:57:29;101620.91;;;18.62;60.83
35248;BME280;21380;52.194;20.520;2023-05-19T05:59:55;101618.50;;;18.70;60.45
35248;BME280;21380;52.194;20.520;2023-05-19T06:02:21;101623.88;;;18.76;60.48
35248;BME280;21380;52.194;20.520;2023-05-19T06:04:47;101613.47;;;18.77;60.69
35248;BME280;21380;52.194;20.520;2023-05-19T06:07:13;101610.06;;;18.82;60.46
35248;BME280;21380;52.194;20.520;2023-05-19T06:09:39;101610.16;;;18.85;60.40
35248;BME280;21380;52.194;20.520;2023-05-19T06:12:05;101592.63;;;18.80;60.37
35248;BME280;21380;52.194;20.520;2023-05-19T06:14:31;101584.72;;;18.79;60.28
35248;BME280;21380;52.194;20.520;2023-05-19T06:16:57;101616.59;;;18.98;60.28
35248;BME280;21380;52.194;20.520;2023-05-19T06:19:23;101594.59;;;18.89;60.49
35248;BME280;21380;52.194;20.520;2023-05-19T06:21:50;101622.84;;;19.03;60.24
35248;BME280;21380;52.194;20.520;2023-05-19T06:24:16;101606.00;;;18.91;60.28
35248;BME280;21380;52.194;20.520;2023-05-19T06:26:42;101629.88;;;19.05;60.33
35248;BME280;21380;52.194;20.520;2023-05-19T06:29:08;101627.22;;;19.04;60.21
35248;BME280;21380;52.194;20.520;2023-05-19T06:31:34;101629.94;;;19.07;60.11
35248;BME280;21380;52.194;20.520;2023-05-19T06:34:00;101636.91;;;19.08;60.21
35248;BME280;21380;52.194;20.520;2023-05-19T06:36:26;101607.84;;;18.95;60.10
35248;BME280;21380;52.194;20.520;2023-05-19T06:38:52;101608.75;;;18.98;59.79
35248;BME280;21380;52.194;20.520;2023-05-19T06:41:18;101622.16;;;19.11;59.94
35248;BME280;21380;52.194;20.520;2023-05-19T06:43:44;101610.75;;;19.08;60.04
35248;BME280;21380;52.194;20.520;2023-05-19T06:46:10;101600.94;;;18.99;59.82
35248;BME280;21380;52.194;20.520;2023-05-19T06:48:37;101611.72;;;19.11;59.86
35248;BME280;21380;52.194;20.520;2023-05-19T06:51:04;101624.88;;;19.15;59.90
35248;BME280;21380;52.194;20.520;2023-05-19T06:53:30;101623.06;;;19.12;59.85
35248;BME280;21380;52.194;20.520;2023-05-19T06:55:56;101624.03;;;19.16;60.05
35248;BME280;21380;52.194;20.520;2023-05-19T06:58:21;101616.94;;;19.11;59.75
35248;BME280;21380;52.194;20.520;2023-05-19T07:00:47;101628.47;;;19.18;59.76
35248;BME280;21380;52.194;20.520;2023-05-19T07:03:13;101624.94;;;19.18;59.83
35248;BME280;21380;52.194;20.520;2023-05-19T07:05:39;101602.00;;;19.06;59.98
35248;BME280;21380;52.194;20.520;2023-05-19T07:08:05;101604.75;;;19.10;59.97
35248;BME280;21380;52.194;20.520;2023-05-19T07:10:32;101618.03;;;19.20;59.94
35248;BME280;21380;52.194;20.520;2023-05-19T07:12:58;101626.81;;;19.22;59.89
35248;BME280;21380;52.194;20.520;2023-05-19T07:15:24;101618.97;;;19.22;59.86
35248;BME280;21380;52.194;20.520;2023-05-19T07:17:50;101618.06;;;19.21;59.92
35248;BME280;21380;52.194;20.520;2023-05-19T07:20:16;101609.31;;;19.19;59.81
35248;BME280;21380;52.194;20.520;2023-05-19T07:22:42;101600.38;;;19.11;59.91
35248;BME280;21380;52.194;20.520;2023-05-19T07:25:08;101607.47;;;19.17;59.91
35248;BME280;21380;52.194;20.520;2023-05-19T07:27:34;101601.38;;;19.16;59.76
35248;BME280;21380;52.194;20.520;2023-05-19T07:30:00;101622.50;;;19.25;59.82
35248;BME280;21380;52.194;20.520;2023-05-19T07:32:26;101590.75;;;19.10;59.83
35248;BME280;21380;52.194;20.520;2023-05-19T07:34:52;101610.22;;;19.23;59.80
35248;BME280;21380;52.194;20.520;2023-05-19T07:37:18;101609.22;;;19.16;59.84
35248;BME280;21380;52.194;20.520;2023-05-19T07:39:44;101626.03;;;19.26;59.59
35248;BME280;21380;52.194;20.520;2023-05-19T07:42:10;101599.38;;;19.06;59.75
35248;BME280;21380;52.194;20.520;2023-05-19T07:44:36;101601.25;;;19.11;59.95
35248;BME280;21380;52.194;20.520;2023-05-19T07:47:01;101625.06;;;19.22;59.88
35248;BME280;21380;52.194;20.520;2023-05-19T07:49:27;101619.78;;;19.21;59.58
35248;BME280;21380;52.194;20.520;2023-05-19T07:51:53;101596.91;;;19.12;59.88
35248;BME280;21380;52.194;20.520;2023-05-19T07:54:19;101628.66;;;19.27;59.64
35248;BME280;21380;52.194;20.520;2023-05-19T07:56:45;101616.34;;;19.22;59.74
35248;BME280;21380;52.194;20.520;2023-05-19T07:59:13;101626.88;;;19.26;59.66
35248;BME280;21380;52.194;20.520;2023-05-19T08:01:39;101595.13;;;19.09;59.76
35248;BME280;21380;52.194;20.520;2023-05-19T08:04:05;101608.25;;;19.12;59.68
35248;BME280;21380;52.194;20.520;2023-05-19T08:06:31;101601.22;;;19.10;59.70
35248;BME280;21380;52.194;20.520;2023-05-19T08:08:57;101600.41;;;19.12;59.79
35248;BME280;21380;52.194;20.520;2023-05-19T08:11:23;101609.22;;;19.16;59.67
35248;BME280;21380;52.194;20.520;2023-05-19T08:13:49;101595.06;;;19.08;59.64
35248;BME280;21380;52.194;20.520;2023-05-19T08:16:15;101617.25;;;19.25;59.56
35248;BME280;21380;52.194;20.520;2023-05-19T08:18:41;101599.41;;;19.07;59.95
35248;BME280;21380;52.194;20.520;2023-05-19T08:21:07;101605.66;;;19.14;59.87
35248;BME280;21380;52.194;20.520;2023-05-19T08:23:33;101611.84;;;19.16;59.80
35248;BME280;21380;52.194;20.520;2023-05-19T08:25:59;101584.47;;;19.02;59.46
35248;BME280;21380;52.194;20.520;2023-05-19T08:28:26;101626.88;;;19.26;59.89
35248;BME280;21380;52.194;20.520;2023-05-19T08:30:52;101577.47;;;19.01;59.90
35248;BME280;21380;52.194;20.520;2023-05-19T08:33:18;101596.91;;;19.12;59.69
35248;BME280;21380;52.194;20.520;2023-05-19T08:35:46;101605.72;;;19.16;59.80
35248;BME280;21380;52.194;20.520;2023-05-19T08:38:12;101596.91;;;19.12;59.70
35248;BME280;21380;52.194;20.520;2023-05-19T08:40:41;101577.38;;;18.98;59.82
35248;BME280;21380;52.194;20.520;2023-05-19T08:43:08;101604.78;;;19.14;59.86
35248;BME280;21380;52.194;20.520;2023-05-19T08:45:34;101605.66;;;19.14;59.57
35248;BME280;21380;52.194;20.520;2023-05-19T08:48:01;101631.28;;;19.27;59.68
35248;BME280;21380;52.194;20.520;2023-05-19T08:50:29;101608.25;;;19.12;59.78
35248;BME280;21380;52.194;20.520;2023-05-19T08:53:22;101627.72;;;19.25;59.94
35248;BME280;21380;52.194;20.520;2023-05-19T08:56:05;101613.66;;;19.20;59.84
35248;BME280;21380;52.194;20.520;2023-05-19T08:58:38;101612.75;;;19.18;59.73
35248;BME280;21380;52.194;20.520;2023-05-19T09:01:06;101603.97;;;19.16;59.78
35248;BME280;21380;52.194;20.520;2023-05-19T09:03:33;101603.94;;;19.13;59.76
35248;BME280;21380;52.194;20.520;2023-05-19T09:06:06;101631.13;;;19.21;60.02
35248;BME280;21380;52.194;20.520;2023-05-19T09:08:42;101625.03;;;19.21;60.02
35248;BME280;21380;52.194;20.520;2023-05-19T09:11:09;101617.06;;;19.16;59.75
35248;BME280;21380;52.194;20.520;2023-05-19T09:13:35;101626.81;;;19.22;59.94
35248;BME280;21380;52.194;20.520;2023-05-19T09:16:01;101627.78;;;19.27;59.84
35248;BME280;21380;52.194;20.520;2023-05-19T09:18:28;101638.25;;;19.27;60.01
35248;BME280;21380;52.194;20.520;2023-05-19T09:20:59;101625.91;;;19.21;59.90
35248;BME280;21380;52.194;20.520;2023-05-19T09:23:28;101633.03;;;19.27;60.05
35248;BME280;21380;52.194;20.520;2023-05-19T09:25:56;101626.94;;;19.28;60.08
35248;BME280;21380;52.194;20.520;2023-05-19T09:28:26;101595.16;;;19.11;59.83
35248;BME280;21380;52.194;20.520;2023-05-19T09:33:24;101620.66;;;19.21;59.82
35248;BME280;21380;52.194;20.520;2023-05-19T09:35:50;101598.75;;;19.16;59.86
35248;BME280;21380;52.194;20.520;2023-05-19T09:38:17;101606.59;;;19.16;59.78
35248;BME280;21380;52.194;20.520;2023-05-19T09:40:43;101623.41;;;19.26;59.79
35248;BME280;21380;52.194;20.520;2023-05-19T09:43:10;101588.94;;;19.06;59.84
35248;BME280;21380;52.194;20.520;2023-05-19T09:45:36;101599.53;;;19.12;59.82
35248;BME280;21380;52.194;20.520;2023-05-19T09:48:03;101619.88;;;19.25;59.88
35248;BME280;21380;52.194;20.520;2023-05-19T09:50:29;101611.03;;;19.20;59.94
35248;BME280;21380;52.194;20.520;2023-05-19T09:52:55;101626.03;;;19.26;59.85
35248;BME280;21380;52.194;20.520;2023-05-19T09:55:24;101583.59;;;19.03;60.15
35248;BME280;21380;52.194;20.520;2023-05-19T09:57:53;101583.59;;;19.03;59.96
35248;BME280;21380;52.194;20.520;2023-05-19T10:00:21;101629.50;;;19.26;60.02
35248;BME280;21380;52.194;20.520;2023-05-19T10:02:48;101623.38;;;19.24;60.07
35248;BME280;21380;52.194;20.520;2023-05-19T10:05:16;101610.97;;;19.16;59.90
35248;BME280;21380;52.194;20.520;2023-05-19T10:07:49;101623.38;;;19.24;60.05
35248;BME280;21380;52.194;20.520;2023-05-19T10:10:16;101624.25;;;19.25;60.01
35248;BME280;21380;52.194;20.520;2023-05-19T10:12:42;101619.88;;;19.25;60.05
35248;BME280;21380;52.194;20.520;2023-05-19T10:15:11;101610.19;;;19.21;59.92
35248;BME280;21380;52.194;20.520;2023-05-19T10:17:38;101616.44;;;19.26;59.97
35248;BME280;21380;52.194;20.520;2023-05-19T10:20:12;101598.72;;;19.15;59.91
35248;BME280;21380;52.194;20.520;2023-05-19T10:22:43;101578.50;;;19.07;59.98
35248;BME280;21380;52.194;20.520;2023-05-19T10:25:10;101607.72;;;19.26;60.01
35248;BME280;21380;52.194;20.520;2023-05-19T10:28:02;101598.97;;;19.25;60.10
35248;BME280;21380;52.194;20.520;2023-05-19T10:30:46;101576.88;;;19.12;59.93
35248;BME280;21380;52.194;20.520;2023-05-19T10:33:15;101560.97;;;19.03;60.07
35248;BME280;21380;52.194;20.520;2023-05-19T10:35:53;101592.84;;;19.25;60.12
35248;BME280;21380;52.194;20.520;2023-05-19T10:38:51;101600.72;;;19.26;60.10
35248;BME280;21380;52.194;20.520;2023-05-19T10:44:27;101597.25;;;19.26;60.03
35248;BME280;21380;52.194;20.520;2023-05-19T10:46:55;101591.00;;;19.19;60.14
35248;BME280;21380;52.194;20.520;2023-05-19T10:49:21;101601.63;;;19.27;59.89
35248;BME280;21380;52.194;20.520;2023-05-19T10:51:47;101591.03;;;19.21;60.13
35248;BME280;21380;52.194;20.520;2023-05-19T10:54:14;101597.25;;;19.26;60.04
35248;BME280;21380;52.194;20.520;2023-05-19T10:56:43;101603.41;;;19.28;60.10
35248;BME280;21380;52.194;20.520;2023-05-19T10:59:34;101601.66;;;19.28;60.21
35248;BME280;21380;52.194;20.520;2023-05-19T11:02:05;101601.66;;;19.28;60.18
35248;BME280;21380;52.194;20.520;2023-05-19T11:07:08;101569.97;;;19.16;59.94
35248;BME280;21380;52.194;20.520;2023-05-19T11:09:39;101594.66;;;19.27;60.16
35248;BME280;21380;52.194;20.520;2023-05-19T11:12:05;101575.34;;;19.21;60.21
35248;BME280;21380;52.194;20.520;2023-05-19T11:14:33;101590.34;;;19.30;60.08
35248;BME280;21380;52.194;20.520;2023-05-19T11:16:59;101567.31;;;19.13;60.36
35248;BME280;21380;52.194;20.520;2023-05-19T11:19:33;101595.59;;;19.30;60.26
35248;BME280;21380;52.194;20.520;2023-05-19T11:22:12;101597.34;;;19.31;60.38
35248;BME280;21380;52.194;20.520;2023-05-19T11:24:45;101577.00;;;19.19;60.17
35248;BME280;21380;52.194;20.520;2023-05-19T11:27:28;101602.59;;;19.31;60.33
35248;BME280;21380;52.194;20.520;2023-05-19T11:30:10;101591.06;;;19.22;60.25
35248;BME280;21380;52.194;20.520;2023-05-19T11:32:39;101584.84;;;19.17;60.03
35248;BME280;21380;52.194;20.520;2023-05-19T11:35:08;101598.13;;;19.26;60.31
35248;BME280;21380;52.194;20.520;2023-05-19T11:37:34;101601.63;;;19.27;60.19
35248;BME280;21380;52.194;20.520;2023-05-19T11:40:02;101605.16;;;19.29;60.01
35248;BME280;21380;52.194;20.520;2023-05-19T11:42:32;101599.88;;;19.27;60.19
35248;BME280;21380;52.194;20.520;2023-05-19T11:45:03;101606.06;;;19.30;60.08
35248;BME280;21380;52.194;20.520;2023-05-19T11:47:30;101606.91;;;19.30;60.12
35248;BME280;21380;52.194;20.520;2023-05-19T11:49:56;101600.69;;;19.25;60.10
35248;BME280;21380;52.194;20.520;2023-05-19T11:52:25;101606.06;;;19.30;59.98
35248;BME280;21380;52.194;20.520;2023-05-19T11:54:58;101606.91;;;19.30;60.00
35248;BME280;21380;52.194;20.520;2023-05-19T11:57:25;101597.22;;;19.24;59.99
35248;BME280;21380;52.194;20.520;2023-05-19T11:59:51;101591.91;;;19.21;60.06
35248;BME280;21380;52.194;20.520;2023-05-19T12:02:24;101593.72;;;19.25;59.93
35248;BME280;21380;52.194;20.520;2023-05-19T12:04:52;101576.00;;;19.12;60.07
35248;BME280;21380;52.194;20.520;2023-05-19T12:07:20;101589.28;;;19.21;60.26
35248;BME280;21380;52.194;20.520;2023-05-19T12:09:48;101596.28;;;19.22;60.16
35248;BME280;21380;52.194;20.520;2023-05-19T12:12:15;101594.59;;;19.24;60.30
35248;BME280;21380;52.194;20.520;2023-05-19T12:14:51;101609.50;;;19.28;60.45
35248;BME280;21380;52.194;20.520;2023-05-19T12:17:20;101603.47;;;19.31;60.55
35248;BME280;21380;52.194;20.520;2023-05-19T12:19:49;101589.31;;;19.23;60.42
35248;BME280;21380;52.194;20.520;2023-05-19T12:22:16;101596.44;;;19.28;60.32
35248;BME280;21380;52.194;20.520;2023-05-19T12:24:42;101579.59;;;19.17;60.22
35248;BME280;21380;52.194;20.520;2023-05-19T12:27:19;101600.84;;;19.31;60.12
35248;BME280;21380;52.194;20.520;2023-05-19T12:29:55;101591.09;;;19.25;60.28
35248;BME280;21380;52.194;20.520;2023-05-19T12:32:25;101598.16;;;19.28;60.15
35248;BME280;21380;52.194;20.520;2023-05-19T12:34:54;101596.41;;;19.27;60.21
35248;BME280;21380;52.194;20.520;2023-05-19T12:37:20;101579.72;;;19.22;60.04
35248;BME280;21380;52.194;20.520;2023-05-19T12:39:49;101601.66;;;19.28;60.22
35248;BME280;21380;52.194;20.520;2023-05-19T12:42:15;101599.91;;;19.29;60.22
35248;BME280;21380;52.194;20.520;2023-05-19T12:44:47;101603.47;;;19.31;60.29
35248;BME280;21380;52.194;20.520;2023-05-19T12:47:16;101578.81;;;19.21;60.34
35248;BME280;21380;52.194;20.520;2023-05-19T12:50:09;101602.63;;;19.32;60.58
35248;BME280;21380;52.194;20.520;2023-05-19T12:52:44;101604.34;;;19.32;60.29
35248;BME280;21380;52.194;20.520;2023-05-19T12:55:11;101601.69;;;19.30;60.62
35248;BME280;21380;52.194;20.520;2023-05-19T12:57:38;101592.06;;;19.29;60.60
35248;BME280;21380;52.194;20.520;2023-05-19T13:00:14;101592.16;;;19.32;60.53
35248;BME280;21380;52.194;20.520;2023-05-19T13:05:34;101594.69;;;19.29;60.44
35248;BME280;21380;52.194;20.520;2023-05-19T13:10:30;101593.81;;;19.28;60.59